Mandoudi — SV3198 — position and weather

sailwx.info

Track history (hours):
 
Tides and Currents Weather Stations Pressure Air Temp Water Temp Dewpoint Dewpoint Depression Visibility Wind Speed Wind Dir Waves Ship Positions

Mandoudi

Last reported at 2016-Sep-28 03:33 UTC. Time now 2016-Sep-28 06:59 UTC.
Position N 37°58' E 023°37'.

Length 60 m; draft 4.6 m.

Type: Ship (hazmat cat A). MMSI: 237470200.

Date/timePositionNaut miles runAvg speedWind from/ knotsBaromVisibWave heightAir tempDewpointWater temp
2016-Sep-28 03:33N 37°58' E 023°37'0 0.0
2016-Sep-28 02:33N 37°58' E 023°37'0 0.0
2016-Sep-28 01:33N 37°58' E 023°37'0 0.0
2016-Sep-27 23:33N 37°58' E 023°37'0 0.0
2016-Sep-27 19:33N 37°58' E 023°37'0 0.0
2016-Sep-27 14:33N 37°58' E 023°37'0 0.0
2016-Sep-27 13:33N 37°58' E 023°37'0 0.0
2016-Sep-27 10:33N 37°58' E 023°37'0 0.0
2016-Sep-27 00:33N 37°58' E 023°37'0 0.0
2016-Sep-26 20:33N 37°58' E 023°37'0 0.0
2016-Sep-26 19:33N 37°58' E 023°37'3 0.8
2016-Sep-26 15:33N 37°59' E 023°33'4 2.0
2016-Sep-26 13:34N 38°02' E 023°31'0 0.0
2016-Sep-26 11:34N 38°02' E 023°31'1 0.3
2016-Sep-26 08:33N 38°01' E 023°31'6 1.0
2016-Sep-26 02:33N 37°58' E 023°37'0 0.0
2016-Sep-26 01:33N 37°58' E 023°37'0 0.0
2016-Sep-26 00:33N 37°58' E 023°37'0 0.0
2016-Sep-25 21:33N 37°58' E 023°37'0 0.0
2016-Sep-25 17:33N 37°58' E 023°37'0 0.0
2016-Sep-25 16:33N 37°58' E 023°37'0 0.0
2016-Sep-25 15:33N 37°58' E 023°37'0 0.0
2016-Sep-25 14:33N 37°58' E 023°37'0 0.0
2016-Sep-25 12:33N 37°58' E 023°37'4 3.7
2016-Sep-25 11:33N 37°55' E 023°34'0 0.0
2016-Sep-25 10:33N 37°55' E 023°34'2 2.0
2016-Sep-25 09:33N 37°56' E 023°35'2 0.9
2016-Sep-25 07:33N 37°58' E 023°37'0 0.0
2016-Sep-25 04:33N 37°58' E 023°37'0 0.0
2016-Sep-25 00:33N 37°58' E 023°37'0 0.0
2016-Sep-24 22:33N 37°58' E 023°37'0 0.0
2016-Sep-24 21:33N 37°58' E 023°37'0 0.0
2016-Sep-24 19:33N 37°58' E 023°37'0 0.0
2016-Sep-24 18:33N 37°58' E 023°37'0 0.0
2016-Sep-24 17:33N 37°58' E 023°37'0 0.0
2016-Sep-24 16:33N 37°58' E 023°37'0 0.0
2016-Sep-24 14:33N 37°58' E 023°37'0 0.0
2016-Sep-24 12:33N 37°58' E 023°37'0 0.0
2016-Sep-24 10:33N 37°58' E 023°37'0 0.0
2016-Sep-24 09:33N 37°58' E 023°37'0 0.0
2016-Sep-24 03:33N 37°58' E 023°37'0 0.0
2016-Sep-24 02:33N 37°58' E 023°37'0 0.0
2016-Sep-24 01:33N 37°58' E 023°37'0 0.0
2016-Sep-24 00:33N 37°58' E 023°37'0 0.0
2016-Sep-23 19:33N 37°58' E 023°37'0 0.0
2016-Sep-23 17:33N 37°58' E 023°37'0 0.0
2016-Sep-23 16:33N 37°58' E 023°37'0 0.1
2016-Sep-23 15:33N 37°58' E 023°37'4 2.1
2016-Sep-23 13:33N 38°02' E 023°36'0 0.0
2016-Sep-23 09:33N 38°02' E 023°36'6 1.9
2016-Sep-23 06:33N 37°56' E 023°38'2 0.9
2016-Sep-23 04:33N 37°57' E 023°37'0 0.1
2016-Sep-23 03:33N 37°58' E 023°37'0 0.0
2016-Sep-23 02:33N 37°58' E 023°37'0 0.0
2016-Sep-23 01:33N 37°58' E 023°37'0 0.0
2016-Sep-23 00:33N 37°58' E 023°37'0 0.0
2016-Sep-22 23:33N 37°58' E 023°37'0 0.0
2016-Sep-22 20:33N 37°58' E 023°37'0 0.0
2016-Sep-22 12:33N 37°58' E 023°37'2 0.2
2016-Sep-22 04:33N 37°56' E 023°38'0 0.0
2016-Sep-22 03:33N 37°56' E 023°38'2 0.5
2016-Sep-22 00:33N 37°58' E 023°37'0 0.0
2016-Sep-21 23:33N 37°58' E 023°37'0 0.0
2016-Sep-21 22:33N 37°58' E 023°37'0 0.0
2016-Sep-21 19:33N 37°58' E 023°37'0 0.0
2016-Sep-21 16:33N 37°58' E 023°37'3 0.4
2016-Sep-21 09:33N 37°58' E 023°33'4 4.5
2016-Sep-21 08:33N 37°57' E 023°38'0 0.0
2016-Sep-21 05:33N 37°57' E 023°38'4 2.0
2016-Sep-21 03:33N 37°57' E 023°33'5 4.7
2016-Sep-21 02:33N 38°02' E 023°36'1 0.1
2016-Sep-20 17:33N 38°02' E 023°35'0 0.0
2016-Sep-20 14:33N 38°02' E 023°35'0 0.0
2016-Sep-20 13:33N 38°02' E 023°35'6 1.9
2016-Sep-20 10:33N 37°57' E 023°38'0 0.1
2016-Sep-20 08:33N 37°57' E 023°38'0 0.0
2016-Sep-20 07:33N 37°57' E 023°38'0 0.0
2016-Sep-20 06:33N 37°57' E 023°38'1 0.3
2016-Sep-20 02:33N 37°58' E 023°37'0 0.0
2016-Sep-19 23:33N 37°58' E 023°37'0 0.0
2016-Sep-19 19:33N 37°58' E 023°37'0 0.4
2016-Sep-19 18:33N 37°57' E 023°36'6 3.2
2016-Sep-19 16:33N 38°02' E 023°31'0 0.0
2016-Sep-19 14:33N 38°02' E 023°31'4 3.9
2016-Sep-19 13:33N 38°02' E 023°36'0 0.0
2016-Sep-19 12:33N 38°02' E 023°36'0 0.0
2016-Sep-19 11:33N 38°02' E 023°36'0 0.0
2016-Sep-19 09:33N 38°02' E 023°36'3 1.5
2016-Sep-19 07:34N 38°01' E 023°32'1 0.7
2016-Sep-19 06:33N 38°01' E 023°32'5 1.6
2016-Sep-19 03:33N 37°58' E 023°37'0 0.0
2016-Sep-19 02:33N 37°58' E 023°37'0 0.0
2016-Sep-19 00:33N 37°58' E 023°37'0 0.0
2016-Sep-18 19:33N 37°58' E 023°37'0 0.0
2016-Sep-18 15:33N 37°58' E 023°37'0 0.0
2016-Sep-18 14:33N 37°58' E 023°37'6 1.4
2016-Sep-18 10:34N 38°02' E 023°31'0 0.4
2016-Sep-18 09:33N 38°02' E 023°32'  
Track history (hours):
 
Tides and Currents Weather Stations Pressure Air Temp Water Temp Dewpoint Dewpoint Depression Visibility Wind Speed Wind Dir Waves Ship Positions

Mandoudi

Last reported at 2016-Sep-28 03:33 UTC. Time now 2016-Sep-28 06:59 UTC.
Position N 37°58' E 023°37'.

Length 60 m; draft 4.6 m.

Type: Ship (hazmat cat A). MMSI: 237470200.

Date/timePositionNaut miles runAvg speedWind from/ knotsBaromVisibWave heightAir tempDewpointWater temp
2016-Sep-28 03:33N 37°58' E 023°37'0 0.0
2016-Sep-28 02:33N 37°58' E 023°37'0 0.0
2016-Sep-28 01:33N 37°58' E 023°37'0 0.0
2016-Sep-27 23:33N 37°58' E 023°37'0 0.0
2016-Sep-27 19:33N 37°58' E 023°37'0 0.0
2016-Sep-27 14:33N 37°58' E 023°37'0 0.0
2016-Sep-27 13:33N 37°58' E 023°37'0 0.0
2016-Sep-27 10:33N 37°58' E 023°37'0 0.0
2016-Sep-27 00:33N 37°58' E 023°37'0 0.0
2016-Sep-26 20:33N 37°58' E 023°37'0 0.0
2016-Sep-26 19:33N 37°58' E 023°37'3 0.8
2016-Sep-26 15:33N 37°59' E 023°33'4 2.0
2016-Sep-26 13:34N 38°02' E 023°31'0 0.0
2016-Sep-26 11:34N 38°02' E 023°31'1 0.3
2016-Sep-26 08:33N 38°01' E 023°31'6 1.0
2016-Sep-26 02:33N 37°58' E 023°37'0 0.0
2016-Sep-26 01:33N 37°58' E 023°37'0 0.0
2016-Sep-26 00:33N 37°58' E 023°37'0 0.0
2016-Sep-25 21:33N 37°58' E 023°37'0 0.0
2016-Sep-25 17:33N 37°58' E 023°37'0 0.0
2016-Sep-25 16:33N 37°58' E 023°37'0 0.0
2016-Sep-25 15:33N 37°58' E 023°37'0 0.0
2016-Sep-25 14:33N 37°58' E 023°37'0 0.0
2016-Sep-25 12:33N 37°58' E 023°37'4 3.7
2016-Sep-25 11:33N 37°55' E 023°34'0 0.0
2016-Sep-25 10:33N 37°55' E 023°34'2 2.0
2016-Sep-25 09:33N 37°56' E 023°35'2 0.9
2016-Sep-25 07:33N 37°58' E 023°37'0 0.0
2016-Sep-25 04:33N 37°58' E 023°37'0 0.0
2016-Sep-25 00:33N 37°58' E 023°37'0 0.0
2016-Sep-24 22:33N 37°58' E 023°37'0 0.0
2016-Sep-24 21:33N 37°58' E 023°37'0 0.0
2016-Sep-24 19:33N 37°58' E 023°37'0 0.0
2016-Sep-24 18:33N 37°58' E 023°37'0 0.0
2016-Sep-24 17:33N 37°58' E 023°37'0 0.0
2016-Sep-24 16:33N 37°58' E 023°37'0 0.0
2016-Sep-24 14:33N 37°58' E 023°37'0 0.0
2016-Sep-24 12:33N 37°58' E 023°37'0 0.0
2016-Sep-24 10:33N 37°58' E 023°37'0 0.0
2016-Sep-24 09:33N 37°58' E 023°37'0 0.0
2016-Sep-24 03:33N 37°58' E 023°37'0 0.0
2016-Sep-24 02:33N 37°58' E 023°37'0 0.0
2016-Sep-24 01:33N 37°58' E 023°37'0 0.0
2016-Sep-24 00:33N 37°58' E 023°37'0 0.0
2016-Sep-23 19:33N 37°58' E 023°37'0 0.0
2016-Sep-23 17:33N 37°58' E 023°37'0 0.0
2016-Sep-23 16:33N 37°58' E 023°37'0 0.1
2016-Sep-23 15:33N 37°58' E 023°37'4 2.1
2016-Sep-23 13:33N 38°02' E 023°36'0 0.0
2016-Sep-23 09:33N 38°02' E 023°36'6 1.9
2016-Sep-23 06:33N 37°56' E 023°38'2 0.9
2016-Sep-23 04:33N 37°57' E 023°37'0 0.1
2016-Sep-23 03:33N 37°58' E 023°37'0 0.0
2016-Sep-23 02:33N 37°58' E 023°37'0 0.0
2016-Sep-23 01:33N 37°58' E 023°37'0 0.0
2016-Sep-23 00:33N 37°58' E 023°37'0 0.0
2016-Sep-22 23:33N 37°58' E 023°37'0 0.0
2016-Sep-22 20:33N 37°58' E 023°37'0 0.0
2016-Sep-22 12:33N 37°58' E 023°37'2 0.2
2016-Sep-22 04:33N 37°56' E 023°38'0 0.0
2016-Sep-22 03:33N 37°56' E 023°38'2 0.5
2016-Sep-22 00:33N 37°58' E 023°37'0 0.0
2016-Sep-21 23:33N 37°58' E 023°37'0 0.0
2016-Sep-21 22:33N 37°58' E 023°37'0 0.0
2016-Sep-21 19:33N 37°58' E 023°37'0 0.0
2016-Sep-21 16:33N 37°58' E 023°37'3 0.4
2016-Sep-21 09:33N 37°58' E 023°33'4 4.5
2016-Sep-21 08:33N 37°57' E 023°38'0 0.0
2016-Sep-21 05:33N 37°57' E 023°38'4 2.0
2016-Sep-21 03:33N 37°57' E 023°33'5 4.7
2016-Sep-21 02:33N 38°02' E 023°36'1 0.1
2016-Sep-20 17:33N 38°02' E 023°35'0 0.0
2016-Sep-20 14:33N 38°02' E 023°35'0 0.0
2016-Sep-20 13:33N 38°02' E 023°35'6 1.9
2016-Sep-20 10:33N 37°57' E 023°38'0 0.1
2016-Sep-20 08:33N 37°57' E 023°38'0 0.0
2016-Sep-20 07:33N 37°57' E 023°38'0 0.0
2016-Sep-20 06:33N 37°57' E 023°38'1 0.3
2016-Sep-20 02:33N 37°58' E 023°37'0 0.0
2016-Sep-19 23:33N 37°58' E 023°37'0 0.0
2016-Sep-19 19:33N 37°58' E 023°37'0 0.4
2016-Sep-19 18:33N 37°57' E 023°36'6 3.2
2016-Sep-19 16:33N 38°02' E 023°31'0 0.0
2016-Sep-19 14:33N 38°02' E 023°31'4 3.9
2016-Sep-19 13:33N 38°02' E 023°36'0 0.0
2016-Sep-19 12:33N 38°02' E 023°36'0 0.0
2016-Sep-19 11:33N 38°02' E 023°36'0 0.0
2016-Sep-19 09:33N 38°02' E 023°36'3 1.5
2016-Sep-19 07:34N 38°01' E 023°32'1 0.7
2016-Sep-19 06:33N 38°01' E 023°32'5 1.6
2016-Sep-19 03:33N 37°58' E 023°37'0 0.0
2016-Sep-19 02:33N 37°58' E 023°37'0 0.0
2016-Sep-19 00:33N 37°58' E 023°37'0 0.0
2016-Sep-18 19:33N 37°58' E 023°37'0 0.0
2016-Sep-18 15:33N 37°58' E 023°37'0 0.0
2016-Sep-18 14:33N 37°58' E 023°37'6 1.4
2016-Sep-18 10:34N 38°02' E 023°31'0 0.4
2016-Sep-18 09:33N 38°02' E 023°32'  

Dump ship's entire track history